Quick Links (Output Below):   Max & Min Temps   /   Climate Reports   /   Zone Forecasts
River Forecasts   /   Forestry Forecasts   /   Aviation Forecasts   /   Radars   /   Features

Terminal Aerodrome Forecast (Texarkana)

Pick a Site:
Arkadelphia | El Dorado | Fayetteville | Fort Smith | Harrison | Highfill | Hot Springs | Jonesboro
Little Rock | Monticello | Mountain Home | Pine Bluff | Texarkana
 Forecast 

KTXK 291908Z 2919/3018 15012G20KT P6SM VCTS SCT025 BKN040CB
      TEMPO 2919/2923 1SM +TSRA BR OVC015CB
     FM300400 22006KT P6SM VCTS BKN030CB
      TEMPO 3008/3012 3SM TSRA BR OVC015CB
     FM301200 31008KT P6SM BKN100=


 Latest METARs (Observations) 
How to Decode METARs
19Z KTXK 291853Z 15012G20KT 8SM FEW023 SCT028 BKN032 29/23 A2994 RMK
         AO2 SLP134 T02890228
         
18Z KTXK 291753Z 17014G18KT 8SM SCT023 BKN029 BKN038 27/23 A2996 RMK
         AO2 SLP140 T02720228 10278 20206 56008
         
17Z KTXK 291653Z 15011G20KT 8SM FEW021 27/22 A2996 RMK AO2 SLP140
         T02670222
         
16Z KTXK 291553Z 14011G16KT 7SM FEW012 24/22 A2997 RMK AO2 SLP144
         T02440222 $
         
15Z KTXK 291453Z 12006KT 7SM CLR 23/22 A2998 RMK AO2 SLP148 T02280217
         56007
         
14Z KTXK 291353Z 11005KT 6SM BR CLR 22/21 A2999 RMK AO2 SLP151
         T02170206
         
13Z KTXK 291253Z 08004KT 6SM BR CLR 21/21 A2999 RMK AO2 SLP151
         T02110206
         
12Z KTXK 291153Z 19005KT 7SM CLR 21/20 A3000 RMK AO2 SLP156 T02060200
         10211 20194 53008
         
11Z KTXK 291053Z 20004KT 9SM BKN038 21/19 A2999 RMK AO2 SLP151
         T02060194
         
10Z KTXK 290953Z AUTO 00000KT 5SM BR FEW022 SCT031 19/19 A2998 RMK AO2
         SLP146 T01940194
         
***** Today's Observations (Above) *****


Back to Main Page
http://www.srh.noaa.gov/lzk/qfcst.php

USA.gov is the U.S. government's official web portal to all federal, state and local government web resources and services.